createdAt,value
2022-11-03T00:01:36.149Z,100.00
2022-11-03T00:04:04.636Z,100.00
2022-11-03T00:06:34.538Z,100.00
2022-11-03T00:09:05.869Z,100.00
2022-11-03T00:11:34.665Z,100.00
2022-11-03T00:14:03.193Z,100.00
2022-11-03T00:16:31.746Z,100.00
2022-11-03T00:19:00.133Z,100.00
2022-11-03T00:21:28.918Z,100.00
2022-11-03T00:23:58.749Z,100.00
2022-11-03T00:26:28.657Z,100.00
2022-11-03T00:28:58.149Z,100.00
2022-11-03T00:31:27.698Z,100.00
2022-11-03T00:33:56.613Z,100.00
2022-11-03T00:36:26.754Z,100.00
2022-11-03T00:38:55.372Z,100.00
2022-11-03T00:41:26.132Z,100.00
2022-11-03T00:43:54.856Z,100.00
2022-11-03T00:46:24.223Z,100.00
2022-11-03T00:48:53.227Z,100.00
2022-11-03T00:51:23.052Z,100.00
2022-11-03T00:53:53.355Z,100.00
2022-11-03T00:56:23.336Z,100.00
2022-11-03T00:58:54.349Z,100.00
2022-11-03T01:01:24.498Z,100.00
2022-11-03T01:04:12.770Z,100.00
2022-11-03T01:06:51.697Z,100.00
2022-11-03T01:09:20.724Z,100.00
2022-11-03T01:11:55.115Z,100.00
2022-11-03T01:14:26.100Z,100.00
2022-11-03T01:16:54.374Z,100.00
2022-11-03T01:19:23.197Z,100.00
2022-11-03T01:21:51.437Z,100.00
2022-11-03T01:24:20.047Z,100.00
2022-11-03T01:26:48.313Z,100.00
2022-11-03T01:29:16.677Z,100.00
2022-11-03T01:31:46.326Z,100.00
2022-11-03T01:34:16.220Z,100.00
2022-11-03T01:36:44.824Z,100.00
2022-11-03T01:39:14.252Z,100.00
2022-11-03T01:41:43.654Z,100.00
2022-11-03T01:44:27.793Z,100.00
2022-11-03T01:47:02.208Z,100.00
2022-11-03T01:49:34.832Z,100.00
2022-11-03T01:52:06.568Z,100.00
2022-11-03T01:54:35.704Z,100.00
2022-11-03T01:57:06.919Z,100.00
2022-11-03T01:59:35.706Z,100.00
2022-11-03T02:02:05.568Z,100.00
2022-11-03T02:04:35.023Z,100.00
2022-11-03T02:07:11.676Z,100.00
2022-11-03T02:09:40.077Z,100.00
2022-11-03T02:12:09.021Z,100.00
2022-11-03T02:14:39.574Z,100.00
2022-11-03T02:17:12.362Z,100.00
2022-11-03T02:19:43.572Z,100.00
2022-11-03T02:22:38.462Z,100.00
2022-11-03T02:25:15.507Z,100.00
2022-11-03T02:27:45.483Z,100.00
2022-11-03T02:30:14.127Z,100.00
2022-11-03T02:32:49.700Z,100.00
2022-11-03T02:35:22.395Z,100.00
2022-11-03T02:37:52.818Z,100.00
2022-11-03T02:40:25.135Z,100.00
2022-11-03T02:42:55.266Z,100.00
2022-11-03T02:45:26.000Z,100.00
2022-11-03T02:47:56.837Z,100.00
2022-11-03T02:50:28.822Z,100.00
2022-11-03T02:52:57.535Z,100.00
2022-11-03T02:55:34.113Z,100.00
2022-11-03T02:58:08.687Z,100.00
2022-11-03T03:00:42.476Z,100.00
2022-11-03T03:03:13.839Z,100.00
2022-11-03T03:05:43.659Z,100.00
2022-11-03T03:08:13.072Z,100.00
2022-11-03T03:10:43.978Z,100.00
2022-11-03T03:13:16.325Z,100.00
2022-11-03T03:15:48.742Z,100.00
2022-11-03T03:18:22.215Z,100.00
2022-11-03T03:20:57.116Z,100.00
2022-11-03T03:23:26.876Z,100.00
2022-11-03T03:25:58.560Z,100.00
2022-11-03T03:28:32.462Z,100.00
2022-11-03T03:31:02.804Z,100.00
2022-11-03T03:33:31.661Z,100.00
2022-11-03T03:36:01.101Z,100.00
2022-11-03T03:38:33.685Z,100.00
2022-11-03T03:41:05.499Z,100.00
2022-11-03T03:43:37.921Z,100.00
2022-11-03T03:46:09.216Z,100.00
2022-11-03T03:48:37.813Z,100.00
2022-11-03T03:51:07.584Z,100.00
2022-11-03T03:53:35.939Z,100.00
2022-11-03T03:56:05.903Z,100.00
2022-11-03T03:58:34.290Z,100.00
2022-11-03T04:01:04.084Z,100.00
2022-11-03T04:03:32.435Z,100.00
2022-11-03T04:06:00.710Z,100.00
2022-11-03T04:08:29.008Z,100.00
2022-11-03T04:11:17.080Z,100.00
2022-11-03T04:14:02.948Z,100.00
2022-11-03T04:16:50.345Z,100.00
2022-11-03T04:19:36.212Z,100.00
2022-11-03T04:22:21.472Z,100.00
2022-11-03T04:24:51.269Z,100.00
2022-11-03T04:27:28.905Z,100.00
2022-11-03T04:29:59.345Z,100.00
2022-11-03T04:32:30.266Z,100.00
2022-11-03T04:34:59.733Z,100.00
2022-11-03T04:37:29.136Z,100.00
2022-11-03T04:40:01.194Z,100.00
2022-11-03T04:42:32.522Z,100.00
2022-11-03T04:45:02.518Z,100.00
2022-11-03T04:47:32.398Z,100.00
2022-11-03T04:50:01.052Z,100.00
2022-11-03T04:52:30.592Z,100.00
2022-11-03T04:54:58.959Z,100.00
2022-11-03T04:57:29.511Z,100.00
2022-11-03T04:59:58.023Z,100.00
2022-11-03T05:02:26.962Z,100.00
2022-11-03T05:04:56.695Z,100.00
2022-11-03T05:07:29.262Z,100.00
2022-11-03T05:09:57.686Z,100.00
2022-11-03T05:12:26.617Z,100.00
2022-11-03T05:14:58.215Z,100.00
2022-11-03T05:17:29.206Z,100.00
2022-11-03T05:20:01.557Z,100.00
2022-11-03T05:22:35.083Z,100.00
2022-11-03T05:25:05.307Z,100.00
2022-11-03T05:27:33.668Z,100.00
2022-11-03T05:30:02.008Z,100.00
2022-11-03T05:32:31.598Z,100.00
2022-11-03T05:35:01.687Z,100.00
2022-11-03T05:37:32.279Z,100.00
2022-11-03T05:40:00.757Z,100.00
2022-11-03T05:42:34.279Z,100.00
2022-11-03T05:45:04.601Z,100.00
2022-11-03T05:47:36.113Z,100.00
2022-11-03T05:50:17.595Z,100.00
2022-11-03T05:52:47.599Z,100.00
2022-11-03T05:55:27.116Z,100.00
2022-11-03T05:57:57.441Z,100.00
2022-11-03T06:00:34.368Z,100.00
2022-11-03T06:03:02.698Z,100.00
2022-11-03T06:05:33.579Z,100.00
2022-11-03T06:08:04.713Z,100.00
2022-11-03T06:10:35.942Z,100.00
2022-11-03T06:13:09.412Z,100.00
2022-11-03T06:15:38.714Z,100.00
2022-11-03T06:18:15.066Z,100.00
2022-11-03T06:20:49.664Z,100.00
2022-11-03T06:23:18.198Z,100.00
2022-11-03T06:25:46.903Z,100.00
2022-11-03T06:28:19.726Z,100.00
2022-11-03T06:30:48.754Z,100.00
2022-11-03T06:33:21.530Z,100.00
2022-11-03T06:35:52.672Z,100.00
2022-11-03T06:38:23.793Z,100.00
2022-11-03T06:40:53.450Z,100.00
2022-11-03T06:43:24.853Z,100.00
2022-11-03T06:45:55.016Z,100.00
2022-11-03T06:48:25.800Z,100.00
2022-11-03T06:50:56.584Z,100.00
2022-11-03T06:53:27.595Z,100.00
2022-11-03T06:55:55.975Z,100.00
2022-11-03T06:58:30.005Z,100.00
2022-11-03T07:01:03.380Z,100.00
2022-11-03T07:03:35.199Z,100.00
2022-11-03T07:06:19.146Z,100.00
2022-11-03T07:08:49.790Z,100.00
2022-11-03T07:11:18.606Z,100.00
2022-11-03T07:13:48.222Z,100.00
2022-11-03T07:16:21.105Z,100.00
2022-11-03T07:18:49.607Z,100.00
2022-11-03T07:21:35.763Z,100.00
2022-11-03T07:24:08.265Z,100.00
2022-11-03T07:26:36.652Z,100.00
2022-11-03T07:29:05.170Z,100.00
2022-11-03T07:31:33.552Z,100.00
2022-11-03T07:34:01.928Z,100.00
2022-11-03T07:36:33.840Z,100.00
2022-11-03T07:39:03.245Z,100.00
2022-11-03T07:41:34.690Z,100.00
2022-11-03T07:44:03.428Z,100.00
2022-11-03T07:46:31.982Z,100.00
2022-11-03T07:49:02.164Z,100.00
2022-11-03T07:51:33.663Z,100.00
2022-11-03T07:54:04.932Z,100.00
2022-11-03T07:56:37.061Z,100.00
2022-11-03T07:59:13.299Z,100.00
2022-11-03T08:01:43.604Z,100.00
2022-11-03T08:04:14.129Z,100.00
2022-11-03T08:06:44.165Z,100.00
2022-11-03T08:09:12.750Z,100.00
2022-11-03T08:11:41.202Z,100.00
2022-11-03T08:14:09.454Z,100.00
2022-11-03T08:16:37.912Z,100.00
2022-11-03T08:19:06.297Z,100.00
2022-11-03T08:21:35.132Z,100.00
2022-11-03T08:24:05.593Z,100.00
2022-11-03T08:26:33.908Z,100.00
2022-11-03T08:29:02.241Z,100.00
2022-11-03T08:31:30.545Z,100.00
2022-11-03T08:33:58.843Z,100.00
2022-11-03T08:36:27.445Z,100.00
2022-11-03T08:38:55.740Z,100.00
2022-11-03T08:41:25.394Z,100.00
2022-11-03T08:43:53.698Z,100.00
2022-11-03T08:46:22.087Z,100.00
2022-11-03T08:48:50.458Z,100.00
2022-11-03T08:51:18.815Z,100.00
2022-11-03T08:53:50.607Z,100.00
2022-11-03T08:56:21.882Z,100.00
2022-11-03T08:58:52.043Z,100.00
2022-11-03T09:01:20.440Z,100.00
2022-11-03T09:03:48.885Z,100.00
2022-11-03T09:06:17.333Z,100.00
2022-11-03T09:11:34.690Z,100.00
2022-11-03T09:14:04.403Z,100.00
2022-11-03T09:16:32.686Z,100.00
2022-11-03T09:19:00.964Z,100.00
2022-11-03T09:21:29.221Z,100.00
2022-11-03T09:23:59.452Z,100.00
2022-11-03T09:26:28.198Z,100.00
2022-11-03T09:28:56.574Z,100.00
2022-11-03T09:31:28.542Z,100.00
2022-11-03T09:33:56.907Z,100.00
2022-11-03T09:36:25.257Z,100.00
2022-11-03T09:38:53.657Z,100.00
2022-11-03T09:41:27.668Z,100.00
2022-11-03T09:43:58.083Z,100.00
2022-11-03T09:46:30.254Z,100.00
2022-11-03T09:48:59.133Z,100.00
2022-11-03T09:51:28.046Z,100.00
2022-11-03T09:53:57.998Z,100.00
2022-11-03T09:56:26.837Z,100.00
2022-11-03T09:58:55.199Z,100.00
2022-11-03T10:01:23.904Z,100.00
2022-11-03T10:03:53.917Z,96.22
2022-11-03T10:06:22.199Z,93.07
2022-11-03T10:08:50.670Z,98.81
2022-11-03T10:11:19.197Z,100.00
2022-11-03T10:13:49.157Z,96.88
2022-11-03T10:16:20.224Z,100.00
2022-11-03T10:18:48.632Z,98.31
2022-11-03T10:21:19.986Z,100.00
2022-11-03T10:23:50.359Z,98.63
2022-11-03T10:26:22.221Z,100.00
2022-11-03T10:29:00.326Z,100.00
2022-11-03T10:31:36.037Z,100.00
2022-11-03T10:34:05.479Z,100.00
2022-11-03T10:36:36.404Z,100.00
2022-11-03T10:39:24.582Z,98.46
2022-11-03T10:41:58.126Z,95.50
2022-11-03T10:44:28.157Z,90.39
2022-11-03T10:47:00.370Z,100.00
2022-11-03T10:49:29.614Z,96.84
2022-11-03T10:52:06.796Z,95.72
2022-11-03T10:54:37.896Z,97.20
2022-11-03T10:57:06.410Z,100.00
2022-11-03T10:59:37.543Z,86.81
2022-11-03T11:02:16.951Z,93.92
2022-11-03T11:04:45.647Z,87.10
2022-11-03T11:07:20.891Z,87.59
2022-11-03T11:09:49.379Z,82.33
2022-11-03T11:12:19.246Z,82.46
2022-11-03T11:14:58.314Z,84.99
2022-11-03T11:17:47.397Z,79.27
2022-11-03T11:20:40.616Z,81.56
2022-11-03T11:23:49.234Z,86.16
2022-11-03T11:26:32.361Z,100.00
2022-11-03T11:29:44.202Z,96.85
2022-11-03T11:32:52.142Z,91.92
2022-11-03T11:36:15.356Z,100.00
2022-11-03T11:39:01.854Z,100.00
2022-11-03T11:42:11.799Z,100.00
2022-11-03T11:45:04.576Z,100.00
2022-11-03T11:47:47.955Z,100.00
2022-11-03T11:50:32.581Z,100.00
2022-11-03T11:53:20.765Z,100.00
2022-11-03T11:55:52.418Z,100.00
2022-11-03T11:58:38.949Z,100.00
2022-11-03T12:01:21.570Z,100.00
2022-11-03T12:03:50.987Z,100.00
2022-11-03T12:06:33.173Z,93.41
2022-11-03T12:09:08.127Z,83.96
2022-11-03T12:11:45.900Z,86.72
2022-11-03T12:14:35.367Z,84.32
2022-11-03T12:17:34.219Z,82.37
2022-11-03T12:20:44.834Z,83.97
2022-11-03T12:23:33.302Z,88.90
2022-11-03T12:26:02.138Z,84.89
2022-11-03T12:28:37.622Z,81.28
2022-11-03T12:31:07.477Z,78.98
2022-11-03T12:33:35.858Z,84.57
2022-11-03T12:36:04.496Z,83.48
2022-11-03T12:38:32.933Z,79.20
2022-11-03T12:41:21.120Z,81.33
2022-11-03T12:43:50.473Z,83.35
2022-11-03T12:46:21.754Z,81.45
2022-11-03T12:48:50.443Z,90.63
2022-11-03T12:51:20.142Z,93.18
2022-11-03T12:53:48.503Z,94.60
2022-11-03T12:56:17.676Z,96.89
2022-11-03T12:58:46.359Z,100.00
2022-11-03T13:01:14.887Z,100.00
2022-11-03T13:03:44.815Z,100.00
2022-11-03T13:06:14.817Z,100.00
2022-11-03T13:08:44.717Z,100.00
2022-11-03T13:11:32.596Z,100.00
2022-11-03T13:16:46.634Z,100.00
2022-11-03T13:19:16.363Z,100.00
2022-11-03T13:21:44.898Z,100.00
2022-11-03T13:24:13.223Z,100.00
2022-11-03T13:26:41.581Z,100.00
2022-11-03T13:29:09.883Z,100.00
2022-11-03T13:34:25.289Z,100.00
2022-11-03T13:36:53.601Z,100.00
2022-11-03T13:39:21.996Z,100.00
2022-11-03T13:41:50.368Z,100.00
2022-11-03T13:44:18.702Z,100.00
2022-11-03T13:46:47.019Z,100.00
2022-11-03T13:52:05.931Z,100.00
2022-11-03T14:00:16.410Z,100.00
2022-11-03T14:05:33.352Z,100.00
2022-11-03T14:08:03.179Z,100.00
2022-11-03T14:10:31.477Z,100.00
2022-11-03T14:15:44.424Z,100.00
2022-11-03T14:18:12.772Z,100.00
2022-11-03T14:20:41.091Z,100.00
2022-11-03T14:23:10.780Z,100.00
2022-11-03T14:25:39.176Z,100.00
2022-11-03T14:28:07.723Z,100.00
2022-11-03T14:30:36.243Z,100.00
2022-11-03T14:33:04.723Z,100.00
2022-11-03T14:35:33.322Z,100.00
2022-11-03T14:38:01.632Z,100.00
2022-11-03T14:40:48.878Z,100.00
2022-11-03T14:43:18.286Z,100.00
2022-11-03T14:45:46.745Z,100.00
2022-11-03T14:48:15.093Z,100.00
2022-11-03T14:50:43.442Z,100.00
2022-11-03T14:53:12.001Z,100.00
2022-11-03T14:55:41.691Z,100.00
2022-11-03T14:58:10.158Z,100.00
2022-11-03T15:00:38.573Z,100.00
2022-11-03T15:03:06.944Z,100.00
2022-11-03T15:05:47.440Z,100.00
2022-11-03T15:08:17.275Z,100.00
2022-11-03T15:10:46.978Z,100.00
2022-11-03T15:13:15.524Z,100.00
2022-11-03T15:15:43.922Z,100.00
2022-11-03T15:18:12.235Z,100.00
2022-11-03T15:20:40.594Z,100.00
2022-11-03T15:25:59.052Z,100.00
2022-11-03T15:28:27.405Z,100.00
2022-11-03T15:30:55.706Z,100.00
2022-11-03T15:33:24.131Z,100.00
2022-11-03T15:35:54.223Z,100.00
2022-11-03T15:38:22.629Z,100.00
2022-11-03T15:40:50.931Z,100.00
2022-11-03T15:43:20.760Z,100.00
2022-11-03T15:45:49.029Z,100.00
2022-11-03T15:48:17.287Z,100.00
2022-11-03T15:50:45.605Z,100.00
2022-11-03T15:53:13.887Z,100.00
2022-11-03T15:55:42.168Z,100.00
2022-11-03T15:58:10.774Z,100.00
2022-11-03T16:00:40.613Z,100.00
2022-11-03T16:03:09.050Z,100.00
2022-11-03T16:05:37.501Z,100.00
2022-11-03T16:08:06.456Z,100.00
2022-11-03T16:10:35.129Z,100.00
2022-11-03T16:13:03.443Z,100.00
2022-11-03T16:15:31.704Z,100.00
2022-11-03T16:18:02.836Z,100.00
2022-11-03T16:20:31.231Z,100.00
2022-11-03T16:22:59.512Z,100.00
2022-11-03T16:25:27.984Z,100.00
2022-11-03T16:27:56.248Z,100.00
2022-11-03T16:30:24.525Z,100.00
2022-11-03T16:32:54.044Z,100.00
2022-11-03T16:35:23.788Z,100.00
2022-11-03T16:37:52.113Z,100.00
2022-11-03T16:40:20.433Z,100.00
2022-11-03T16:42:49.024Z,100.00
2022-11-03T16:45:19.408Z,100.00
2022-11-03T16:47:48.155Z,100.00
2022-11-03T16:50:17.631Z,100.00
2022-11-03T16:52:48.239Z,100.00
2022-11-03T16:55:16.514Z,100.00
2022-11-03T16:57:44.813Z,100.00
2022-11-03T17:00:15.129Z,100.00
2022-11-03T17:02:43.628Z,100.00
2022-11-03T17:05:12.584Z,100.00
2022-11-03T17:07:41.138Z,100.00
2022-11-03T17:10:11.621Z,100.00
2022-11-03T17:12:39.914Z,100.00
2022-11-03T17:15:08.958Z,100.00
2022-11-03T17:17:37.775Z,100.00
2022-11-03T17:20:07.060Z,100.00
2022-11-03T17:22:35.413Z,100.00
2022-11-03T17:25:03.927Z,100.00
2022-11-03T17:27:39.253Z,100.00
2022-11-03T17:30:09.786Z,100.00
2022-11-03T17:32:39.131Z,100.00
2022-11-03T17:35:12.930Z,100.00
2022-11-03T17:37:41.235Z,100.00
2022-11-03T17:40:15.880Z,100.00
2022-11-03T17:42:45.503Z,100.00
2022-11-03T17:45:15.180Z,100.00
2022-11-03T17:47:43.862Z,100.00
2022-11-03T17:50:14.860Z,100.00
2022-11-03T17:52:43.236Z,100.00
2022-11-03T17:55:17.484Z,100.00
2022-11-03T17:57:47.924Z,100.00
2022-11-03T18:00:18.043Z,100.00
2022-11-03T18:02:46.550Z,100.00
2022-11-03T18:05:26.752Z,100.00
2022-11-03T18:07:55.806Z,100.00
2022-11-03T18:10:27.506Z,100.00
2022-11-03T18:13:16.792Z,100.00
2022-11-03T18:15:47.585Z,100.00
2022-11-03T18:18:19.711Z,100.00
2022-11-03T18:20:53.425Z,100.00
2022-11-03T18:23:23.716Z,100.00
2022-11-03T18:25:52.401Z,100.00
2022-11-03T18:28:22.542Z,100.00
2022-11-03T18:30:52.749Z,100.00
2022-11-03T18:33:24.036Z,100.00
2022-11-03T18:35:53.202Z,100.00
2022-11-03T18:38:23.166Z,100.00
2022-11-03T18:40:51.594Z,100.00
2022-11-03T18:43:22.569Z,100.00
2022-11-03T18:45:51.532Z,100.00
2022-11-03T18:48:20.392Z,100.00
2022-11-03T18:50:50.120Z,100.00
2022-11-03T18:53:20.162Z,100.00
2022-11-03T18:55:48.672Z,100.00
2022-11-03T18:58:18.343Z,100.00
2022-11-03T19:00:48.187Z,100.00
2022-11-03T19:03:18.541Z,100.00
2022-11-03T19:05:47.934Z,100.00
2022-11-03T19:08:20.598Z,100.00
2022-11-03T19:10:49.273Z,100.00
2022-11-03T19:13:21.368Z,100.00
2022-11-03T19:15:51.698Z,100.00
2022-11-03T19:18:20.506Z,100.00
2022-11-03T19:20:48.783Z,100.00
2022-11-03T19:23:17.202Z,100.00
2022-11-03T19:25:45.948Z,100.00
2022-11-03T19:28:15.917Z,100.00
2022-11-03T19:30:45.050Z,100.00
2022-11-03T19:33:20.256Z,100.00
2022-11-03T19:35:48.878Z,100.00
2022-11-03T19:38:18.671Z,100.00
2022-11-03T19:41:01.666Z,100.00
2022-11-03T19:43:34.321Z,100.00
2022-11-03T19:46:03.448Z,100.00
2022-11-03T19:48:34.756Z,100.00
2022-11-03T19:51:03.699Z,100.00
2022-11-03T19:53:33.199Z,100.00
2022-11-03T19:56:01.594Z,100.00
2022-11-03T19:58:30.097Z,100.00
2022-11-03T20:01:02.849Z,100.00
2022-11-03T20:03:35.473Z,100.00
2022-11-03T20:06:03.960Z,100.00
2022-11-03T20:08:33.376Z,100.00
2022-11-03T20:11:01.937Z,100.00
2022-11-03T20:13:34.725Z,100.00
2022-11-03T20:16:02.987Z,100.00
2022-11-03T20:18:31.370Z,100.00
2022-11-03T20:21:01.125Z,100.00
2022-11-03T20:23:31.092Z,100.00
2022-11-03T20:25:59.801Z,100.00
2022-11-03T20:28:29.950Z,100.00
2022-11-03T20:30:59.900Z,100.00
2022-11-03T20:36:22.088Z,100.00
2022-11-03T20:38:52.645Z,100.00
2022-11-03T20:41:21.142Z,100.00
2022-11-03T20:43:49.775Z,100.00
2022-11-03T20:46:23.794Z,100.00
2022-11-03T20:48:52.752Z,100.00
2022-11-03T20:51:24.364Z,100.00
2022-11-03T20:53:52.817Z,100.00
2022-11-03T20:56:23.310Z,100.00
2022-11-03T20:58:51.760Z,100.00
2022-11-03T21:01:25.956Z,100.00
2022-11-03T21:04:01.796Z,100.00
2022-11-03T21:06:33.197Z,100.00
2022-11-03T21:09:01.881Z,100.00
2022-11-03T21:11:34.290Z,100.00
2022-11-03T21:14:06.375Z,100.00
2022-11-03T21:16:52.274Z,100.00
2022-11-03T21:19:39.705Z,100.00
2022-11-03T21:22:50.797Z,100.00
2022-11-03T21:25:04.383Z,100.00
2022-11-03T21:27:33.829Z,100.00
2022-11-03T21:30:03.066Z,100.00
2022-11-03T21:32:31.432Z,100.00
2022-11-03T21:35:01.757Z,100.00
2022-11-03T21:37:31.419Z,100.00
2022-11-03T21:39:59.750Z,100.00
2022-11-03T21:42:45.429Z,100.00
2022-11-03T21:45:14.773Z,100.00
2022-11-03T21:48:03.059Z,100.00
2022-11-03T21:50:30.292Z,100.00
2022-11-03T21:52:59.964Z,100.00
2022-11-03T21:55:29.011Z,100.00
2022-11-03T21:57:57.399Z,100.00
2022-11-03T22:00:25.699Z,100.00
2022-11-03T22:02:54.042Z,100.00
2022-11-03T22:05:22.353Z,100.00
2022-11-03T22:07:50.710Z,100.00
2022-11-03T22:10:20.630Z,100.00
2022-11-03T22:12:49.087Z,100.00
2022-11-03T22:15:35.349Z,100.00
2022-11-03T22:18:04.417Z,100.00
2022-11-03T22:20:50.542Z,100.00
2022-11-03T22:23:36.408Z,100.00
2022-11-03T22:26:23.773Z,100.00
2022-11-03T22:29:12.127Z,100.00
2022-11-03T22:31:42.251Z,100.00
2022-11-03T22:34:28.216Z,100.00
2022-11-03T22:36:56.591Z,100.00
2022-11-03T22:39:42.465Z,100.00
2022-11-03T22:42:31.026Z,100.00
2022-11-03T22:45:17.181Z,100.00
2022-11-03T22:47:45.492Z,100.00
2022-11-03T22:50:13.892Z,100.00
2022-11-03T22:52:42.261Z,100.00
2022-11-03T22:55:09.532Z,100.00
2022-11-03T22:57:39.229Z,100.00
2022-11-03T23:00:08.428Z,100.00
2022-11-03T23:02:36.734Z,100.00
2022-11-03T23:05:05.854Z,100.00
2022-11-03T23:07:40.036Z,100.00
2022-11-03T23:10:10.409Z,100.00
2022-11-03T23:12:40.057Z,100.00
2022-11-03T23:15:27.019Z,100.00
2022-11-03T23:18:13.035Z,100.00
2022-11-03T23:20:58.840Z,100.00
2022-11-03T23:23:44.756Z,100.00
2022-11-03T23:26:13.120Z,100.00
2022-11-03T23:28:42.797Z,100.00
2022-11-03T23:31:11.551Z,100.00
2022-11-03T23:33:40.026Z,100.00
2022-11-03T23:36:10.668Z,100.00
2022-11-03T23:38:39.002Z,100.00
2022-11-03T23:41:08.922Z,100.00
2022-11-03T23:43:37.438Z,100.00
2022-11-03T23:46:24.999Z,100.00
2022-11-03T23:48:53.705Z,100.00
2022-11-03T23:51:23.311Z,100.00
2022-11-03T23:53:52.137Z,100.00
2022-11-03T23:56:38.947Z,100.00
2022-11-03T23:59:08.300Z,100.00
